Terminal Aerodrome Forecast
Issued by NWS

Home | Current Version | Previous Version | Graphics & Text | Print | Product List | Glossary On
Versions: 1 2 3 4 5 6 7 8 9 10 11 12 13 14
317
FTUS43 KICT 212339
TAFHUT
TAF
KHUT 212339Z 2200/2224 09007KT P6SM OVC060
     FM220300 06008KT P6SM OVC035
     FM220600 03010KT 6SM -RA BR OVC025
     FM220900 36012KT 5SM -RA BR OVC015
     FM221200 36014G20KT 6SM BR OVC030
     FM221400 35016G23KT P6SM SCT030 BKN150=

USA.gov is the U.S. government's official web portal to all federal, state and local government web resources and services.